Memphis, MO (63555)

1:21 PM CDT on August 26, 2016 (GMT -0500)
APRSWXNET | | Change Station

Elev 931 ft 40.52 °N, 92.52 °W | Updated 29 minutes ago

Overcast
Overcast
75 °F
Feels Like 76 °F
N
6
Wind Variable Wind from East
Gusts 0.0 mph

Today
High -- | Low -- °F
--% Chance of Precip.
Yesterday
High -- | Low -- °F
Precip. -- in
Pressure 30.12 in
Visibility 10.0 miles
Clouds Few 1600 ft
Overcast 4200 ft
Heat Index 76 °F
Dew Point 68 °F
Humidity 78%
Rainfall in
Snow Depth Not available.
6:30 AM 7:49 PM
Waning Crescent, 32% visible
METAR KIRK 261755Z AUTO 11006KT 10SM FEW016 OVC042 24/19 A3012 RMK AO2 SLP197 T02440194 10244 20194 58013
Pressure 30.12 in
Visibility 10.0 miles
Clouds Few 1600 ft
Overcast 4200 ft
Heat Index 76 °F
Dew Point 68 °F
Humidity 78%
Rainfall in
Snow Depth Not available.
6:30 AM 7:49 PM
Waning Crescent, 32% visible
METAR KIRK 261755Z AUTO 11006KT 10SM FEW016 OVC042 24/19 A3012 RMK AO2 SLP197 T02440194 10244 20194 58013

10-Day Weather Forecast

Almanac

Astronomy

Aug. 26, 2016 Rise Set
Actual Time
Civil Twilight
Nautical Twilight
Astronomical Twilight
Moon
Length of Visible Light
Length of Day
Tomorrow will be .
, % of the Moon is Illuminated

Today's Extremes

State Highs State Lows

Community

WunderPhotos

Upload Photos

1,935,169 photos uploaded!

WunderBlog® & News

Nearby

Air Quality

  Air Quality AQ Index Pollutant
Not available.

Snow Depth

Station Depth Elevation

Earthquake Activity

City Distance Mag. Time & Date
Minimum magnitude displayed is 2.5.

Coastal Water Temperatures

Place Temperature

Stations

Nearby Weather Stations

Station Location Temp. Windchill Dew Point Humidity Wind Precip. Elev Updated Type
                   

Watches & Warnings

There are currently no watches in effect.